Latest Weather Observations for Beaudesert AWS

IDQ60901

Issued at 1:51 pm EST Saturday 31 January 2015 (issued every 10 minutes, with the page automatically refreshed every 10 minutes)

About weather observations | Map of Brisbane area stations | Latest observations for Brisbane area | Other Formats
Station Details ID: 040983 Name: BEAUDESERT DRUMLEY STREET Lat: -27.97 Lon: 152.99 Height: 47.81 m
Data from the previous 72 hours. | See also: Recent months at Beaudesert AWS
Date/Time
EST
Tmp

°C
App
Tmp
°C
Dew
Point
°C
Rel
Hum
%
Delta-T

°C
Wind Press
QNH
hPa
Press
MSL
hPa
Rain
since
9 am
mm
Dir
 
Spd
km/h
Gust
km/h
Spd
kts
Gust
kts
31/01:30pm 32.2 32.8 16.9 40 9.7 NNW 9 17 5 9 1004.3 1004.0 0.0
31/01:00pm 31.9 33.9 19.2 47 8.3 NNW 7 15 4 8 1004.9 1004.6 0.0
31/12:30pm 30.8 31.6 18.2 47 8.1 W 11 19 6 10 1005.6 1005.3 0.0
31/12:00pm 30.1 31.2 17.9 48 7.8 WNW 9 17 5 9 1006.1 1005.8 0.0
31/11:30am 29.8 30.8 18.6 51 7.2 NNW 11 17 6 9 1006.5 1006.2 0.0
31/11:00am 29.3 31.6 19.9 57 6.2 NNW 7 15 4 8 1007.1 1006.8 0.0
31/10:30am 28.0 29.9 19.8 61 5.4 NNW 9 17 5 9 1007.5 1007.2 0.0
31/10:00am 26.8 28.5 19.4 64 4.8 NNW 9 13 5 7 1007.9 1007.6 0.0
31/09:30am 25.9 28.1 19.1 66 4.4 NNW 6 13 3 7 1008.1 1007.8 0.0
31/09:00am 25.1 27.2 18.1 65 4.4 NNE 4 7 2 4 1008.3 1008.0 0.0
31/08:30am 25.4 28.0 19.3 69 3.9 NNW 4 7 2 4 1008.4 1008.1 0.0
31/08:00am 24.3 27.2 18.2 68 3.9 CALM 0 2 0 1 1008.8 1008.5 0.0
31/07:30am 22.3 25.2 18.3 78 2.5 CALM 0 2 0 1 1008.7 1008.4 0.0
31/07:00am 20.8 23.6 18.0 84 1.7 CALM 0 2 0 1 1008.6 1008.3 0.0
31/06:30am 20.0 22.9 18.1 89 1.2 CALM 0 0 0 0 1008.4 1008.1 0.0
31/06:00am 18.6 21.0 17.1 91 0.9 CALM 0 0 0 0 1007.9 1007.6 0.0
31/05:30am 17.7 19.8 16.2 91 0.9 CALM 0 0 0 0 1007.6 1007.3 0.0
31/05:00am 18.2 20.5 16.7 91 0.9 CALM 0 0 0 0 1007.4 1007.1 0.0
31/04:30am 18.6 21.1 17.3 92 0.8 CALM 0 0 0 0 1007.1 1006.8 0.0
31/04:00am 18.5 21.0 17.2 92 0.8 CALM 0 0 0 0 1007.0 1006.7 0.0
31/03:30am 18.3 20.6 16.8 91 0.9 CALM 0 0 0 0 1006.9 1006.6 0.0
31/03:00am 18.4 20.8 16.9 91 0.9 CALM 0 0 0 0 1006.6 1006.3 0.0
31/02:30am 18.3 20.5 16.6 90 1.0 CALM 0 0 0 0 1006.6 1006.3 0.0
31/02:00am 18.7 21.0 16.7 88 1.2 CALM 0 0 0 0 1006.8 1006.5 0.0
31/01:30am 19.7 22.1 18.0 90 1.1 E 2 6 1 3 1007.1 1006.8 0.0
31/01:00am 19.1 21.6 17.2 89 1.2 CALM 0 0 0 0 1007.3 1007.0 0.0
31/12:30am 19.2 21.4 16.6 85 1.6 CALM 0 0 0 0 1007.5 1007.2 0.0
31/12:00am 21.0 23.4 18.0 83 1.9 E 2 4 1 2 1007.7 1007.4 0.0
 
Date/Time
EST
Tmp

°C
App
Tmp
°C
Dew
Point
°C
Rel
Hum
%
Delta-T

°C
Wind Press
QNH
hPa
Press
MSL
hPa
Rain
since
9 am
mm
Dir
 
Spd
km/h
Gust
km/h
Spd
kts
Gust
kts
30/11:30pm 20.7 22.9 17.5 82 2.0 ENE 2 4 1 2 1008.1 1007.8 0.0
30/11:00pm 21.4 23.5 18.2 82 2.0 ENE 4 6 2 3 1008.2 1007.9 0.0
30/10:30pm 21.5 23.7 18.3 82 2.0 E 4 4 2 2 1008.3 1008.0 0.0
30/10:00pm 21.8 23.9 18.2 80 2.3 E 4 6 2 3 1008.3 1008.0 0.0
30/09:30pm 22.1 24.7 18.3 79 2.4 ESE 2 4 1 2 1008.2 1007.9 0.0
30/09:00pm 22.6 24.7 18.2 76 2.8 E 4 6 2 3 1008.0 1007.7 0.0
30/08:30pm 22.9 25.0 18.0 74 3.1 ENE 4 6 2 3 1007.7 1007.4 0.0
30/08:00pm 23.7 25.8 18.1 71 3.5 NE 4 7 2 4 1007.5 1007.2 0.0
30/07:30pm 24.0 26.1 18.0 69 3.8 NE 4 7 2 4 1007.2 1006.9 0.0
30/07:00pm 24.7 26.1 17.9 66 4.3 NE 7 15 4 8 1006.8 1006.5 0.0
30/06:30pm 25.7 26.0 17.9 62 4.9 NNE 13 22 7 12 1006.3 1006.0 0.0
30/06:00pm 26.8 26.7 17.8 57 5.7 NNE 15 24 8 13 1005.9 1005.6 0.0
30/05:30pm 27.7 27.5 17.5 53 6.4 N 15 24 8 13 1005.6 1005.3 0.0
30/05:00pm 28.5 28.3 17.7 52 6.9 N 15 22 8 12 1005.3 1005.0 0.0
30/04:30pm 28.6 28.4 17.5 51 7.0 NNE 15 22 8 12 1005.2 1004.9 0.0
30/04:00pm 30.3 31.7 17.4 46 8.2 N 6 15 3 8 1005.2 1004.9 0.0
30/03:30pm 30.2 30.2 14.3 38 9.6 NW 7 13 4 7 1005.4 1005.1 0.0
30/03:00pm 29.8 29.9 14.0 38 9.5 NNW 6 15 3 8 1005.8 1005.5 0.0
30/02:30pm 29.7 29.5 14.7 40 9.1 NNW 9 15 5 8 1006.3 1006.0 0.0
30/02:00pm 29.6 29.8 15.7 43 8.6 WNW 9 17 5 9 1006.5 1006.2 0.0
30/01:30pm 28.4 28.4 13.5 40 8.9 NW 6 13 3 7 1007.0 1006.7 0.0
30/01:00pm 28.4 28.6 14.6 43 8.4 NW 7 15 4 8 1007.5 1007.2 0.0
30/12:30pm 28.3 28.3 15.2 44 8.0 NW 9 17 5 9 1008.0 1007.7 0.0
30/12:00pm 27.8 28.3 15.5 47 7.5 NW 7 13 4 7 1008.5 1008.2 0.0
30/11:30am 27.5 28.2 16.1 49 7.0 NW 7 17 4 9 1008.9 1008.6 0.0
30/11:00am 26.5 27.0 15.5 50 6.7 NNW 7 13 4 7 1009.2 1008.9 0.0
30/10:30am 26.9 28.0 17.1 55 6.1 NNW 7 13 4 7 1009.7 1009.4 0.0
30/10:00am 25.5 26.4 16.1 56 5.8 WNW 6 11 3 6 1009.9 1009.6 0.0
30/09:30am 25.0 26.3 16.2 58 5.4 NNE 4 6 2 3 1010.0 1009.7 0.0
30/09:00am 23.9 25.0 15.7 60 5.0 SW 4 7 2 4 1010.1 1009.8 0.0
30/08:30am 23.3 24.4 16.6 66 4.1 SW 6 9 3 5 1010.2 1009.9 0.0
30/08:00am 21.8 23.2 17.4 76 2.7 WSW 6 7 3 4 1010.3 1010.0 0.0
30/07:30am 21.1 22.9 17.5 80 2.2 WSW 4 6 2 3 1010.2 1009.9 0.0
30/07:00am 20.2 22.8 17.4 84 1.7 CALM 0 0 0 0 1010.1 1009.8 0.0
30/06:30am 19.2 21.0 17.5 90 1.0 S 4 6 2 3 1009.9 1009.6 0.0
30/06:00am 18.2 20.2 16.9 92 0.8 SSE 2 6 1 3 1009.6 1009.3 0.0
30/05:30am 17.9 20.1 16.6 92 0.8 CALM 0 0 0 0 1009.5 1009.2 0.0
30/05:00am 17.8 19.9 16.3 91 0.9 CALM 0 0 0 0 1009.2 1008.9 0.0
30/04:30am 18.0 20.3 16.7 92 0.8 CALM 0 0 0 0 1009.2 1008.9 0.0
30/04:00am 18.0 19.5 16.7 92 0.8 NE 4 6 2 3 1009.1 1008.8 0.0
30/03:30am 17.6 19.3 16.1 91 0.9 ENE 2 4 1 2 1009.1 1008.8 0.0
30/03:00am 17.8 19.9 16.3 91 0.9 CALM 0 0 0 0 1009.2 1008.9 0.0
30/02:30am 17.9 20.0 16.2 90 1.0 CALM 0 4 0 2 1009.2 1008.9 0.0
30/02:00am 18.4 20.7 16.7 90 1.0 CALM 0 0 0 0 1009.4 1009.1 0.0
30/01:30am 18.5 20.8 16.8 90 1.0 CALM 0 0 0 0 1009.8 1009.5 0.0
30/01:00am 18.8 20.7 16.8 88 1.2 SSW 2 2 1 1 1009.9 1009.6 0.0
30/12:30am 19.5 21.0 17.5 88 1.2 SSE 6 7 3 4 1010.1 1009.8 0.0
30/12:00am 19.6 20.4 17.4 87 1.3 S 9 13 5 7 1010.3 1010.0 0.0
 
Date/Time
EST
Tmp

°C
App
Tmp
°C
Dew
Point
°C
Rel
Hum
%
Delta-T

°C
Wind Press
QNH
hPa
Press
MSL
hPa
Rain
since
9 am
mm
Dir
 
Spd
km/h
Gust
km/h
Spd
kts
Gust
kts
29/11:30pm 19.6 20.6 17.7 89 1.2 S 9 13 5 7 1010.6 1010.3 0.0
29/11:00pm 20.6 21.3 17.0 80 2.2 S 9 17 5 9 1010.7 1010.4 0.0
29/10:30pm 22.1 23.7 17.0 73 3.1 SSW 4 7 2 4 1010.8 1010.5 0.0
29/10:00pm 22.3 24.2 16.6 70 3.5 SW 2 6 1 3 1010.6 1010.3 0.0
29/09:30pm 23.0 24.2 15.8 64 4.3 S 4 11 2 6 1010.4 1010.1 0.0
29/09:00pm 23.1 22.6 15.9 64 4.4 E 13 20 7 11 1009.8 1009.5 0.0
29/08:30pm 23.1 22.9 15.7 63 4.5 E 11 20 6 11 1009.5 1009.2 0.0
29/08:00pm 23.3 22.2 15.4 61 4.8 E 15 20 8 11 1009.1 1008.8 0.0
29/07:30pm 23.7 22.7 15.5 60 4.9 E 15 20 8 11 1008.9 1008.6 0.0
29/07:00pm 24.0 23.8 15.8 60 5.0 E 11 19 6 10 1008.4 1008.1 0.0
29/06:30pm 24.3 24.5 15.8 59 5.2 E 9 15 5 8 1008.0 1007.7 0.0
29/06:00pm 25.1 25.0 16.0 57 5.6 ENE 11 17 6 9 1007.6 1007.3 0.0
29/05:30pm 26.1 26.5 16.4 55 6.0 ENE 9 17 5 9 1007.0 1006.7 0.0
29/05:00pm 26.1 27.1 16.9 57 5.7 ENE 7 13 4 7 1006.7 1006.4 0.0
29/04:30pm 26.6 27.7 17.1 56 5.9 ENE 7 11 4 6 1006.5 1006.2 0.0
29/04:00pm 27.8 28.5 17.9 54 6.3 ENE 11 17 6 9 1006.4 1006.1 0.0
29/03:30pm 28.1 29.0 14.0 42 8.4 SW 2 7 1 4 1006.5 1006.2 0.0
29/03:00pm 28.4 29.0 15.3 45 8.0 SW 6 9 3 5 1006.6 1006.3 0.0
29/02:30pm 28.8 28.1 14.2 40 8.8 SW 11 20 6 11 1006.9 1006.6 0.0
29/02:00pm 28.7 29.0 15.9 45 7.9 S 9 17 5 9 1006.9 1006.6 0.0
29/01:30pm 28.5 28.7 14.7 43 8.4 WSW 7 11 4 6 1007.2 1006.9 0.0
29/01:00pm 28.0 27.9 13.9 42 8.4 SW 7 13 4 7 1007.4 1007.1 0.0
29/12:30pm 27.5 27.8 14.5 45 7.8 SW 6 13 3 7 1007.8 1007.5 0.0
29/12:00pm 27.4 27.5 16.4 51 6.8 WSW 11 20 6 11 1008.1 1007.8 0.0
29/11:30am 26.5 26.7 14.6 48 7.1 S 7 15 4 8 1008.5 1008.2 0.0
29/11:00am 26.2 26.2 15.3 51 6.6 SSW 9 19 5 10 1008.8 1008.5 0.0
29/10:30am 26.0 26.1 15.4 52 6.4 SSW 9 19 5 10 1009.0 1008.7 0.0
29/10:00am 24.9 23.8 14.4 52 6.3 SSW 13 19 7 10 1009.1 1008.8 0.0
29/09:30am 24.5 22.9 14.0 52 6.2 SSW 15 22 8 12 1009.2 1008.9 0.0
29/09:00am 24.4 23.0 14.5 54 5.9 SSW 15 22 8 12 1009.3 1009.0 0.0
29/08:30am 23.9 22.4 14.3 55 5.7 SSW 15 20 8 11 1009.1 1008.8 0.0
29/08:00am 23.1 21.3 13.3 54 5.7 SSW 15 26 8 14 1008.9 1008.6 0.0
29/07:30am 22.0 20.3 12.5 54 5.4 SSW 13 20 7 11 1009.1 1008.8 0.0
29/07:00am 20.9 20.4 12.6 59 4.7 S 7 17 4 9 1008.9 1008.6 0.0
29/06:30am 19.1 19.1 12.4 65 3.7 S 4 6 2 3 1008.8 1008.5 0.0
29/06:00am 18.9 18.4 12.2 65 3.7 SSW 6 11 3 6 1008.3 1008.0 0.0
29/05:30am 19.0 18.5 12.0 64 3.9 S 6 11 3 6 1008.0 1007.7 0.0
29/05:00am 19.3 18.7 12.3 64 3.9 SSW 7 13 4 7 1007.8 1007.5 0.0
29/04:30am 19.6 18.9 13.1 66 3.7 SSW 9 17 5 9 1007.6 1007.3 0.0
29/04:00am 20.0 18.9 13.2 65 3.9 SSW 11 20 6 11 1007.3 1007.0 0.0
29/03:30am 20.1 19.4 13.3 65 3.9 SSW 9 13 5 7 1007.3 1007.0 0.0
29/03:00am 20.1 18.8 13.8 67 3.6 SSW 13 19 7 10 1007.2 1006.9 0.0
29/02:30am 20.2 19.4 14.1 68 3.5 SSW 11 17 6 9 1007.3 1007.0 0.0
29/02:00am 20.2 19.6 14.6 70 3.3 SW 11 22 6 12 1007.7 1007.4 0.0
29/01:30am 20.5 19.5 14.6 69 3.5 SSW 13 19 7 10 1007.5 1007.2 0.0
29/01:00am 20.4 19.6 15.0 71 3.2 SSW 13 22 7 12 1007.5 1007.2 0.0
29/12:30am 20.3 19.1 15.1 72 3.1 SSW 15 24 8 13 1008.0 1007.7 0.0
29/12:00am 20.5 19.4 15.3 72 3.1 SSW 15 22 8 12 1008.3 1008.0 0.0
 
Date/Time
EST
Tmp

°C
App
Tmp
°C
Dew
Point
°C
Rel
Hum
%
Delta-T

°C
Wind Press
QNH
hPa
Press
MSL
hPa
Rain
since
9 am
mm
Dir
 
Spd
km/h
Gust
km/h
Spd
kts
Gust
kts
28/11:30pm 21.3 20.2 15.4 69 3.5 SSW 15 26 8 14 1008.5 1008.2 0.0
28/11:00pm 21.3 21.0 15.4 69 3.5 SSW 11 20 6 11 1008.6 1008.3 0.0
28/10:30pm 21.4 20.8 15.7 70 3.4 SSW 13 24 7 13 1008.3 1008.0 0.0
28/10:00pm 21.3 20.8 15.8 71 3.3 SSW 13 19 7 10 1008.3 1008.0 0.0
28/09:30pm 21.5 21.0 16.0 71 3.3 SSW 13 20 7 11 1008.3 1008.0 0.0
28/09:00pm 21.8 21.8 16.3 71 3.3 SSW 11 19 6 10 1008.4 1008.1 0.0
28/08:30pm 21.5 22.0 16.5 73 3.0 SSW 9 15 5 8 1008.2 1007.9 0.0
28/08:00pm 20.8 21.1 16.0 74 2.9 SSW 9 17 5 9 1008.1 1007.8 0.0
28/07:30pm 20.9 21.5 15.7 72 3.1 SSW 7 11 4 6 1008.0 1007.7 0.0
28/07:00pm 21.6 21.9 16.1 71 3.3 SSW 9 15 5 8 1008.0 1007.7 0.0
28/06:30pm 21.8 21.4 16.1 70 3.4 SSW 13 20 7 11 1007.6 1007.3 0.0
28/06:00pm 21.9 21.1 16.2 70 3.5 SW 15 24 8 13 1007.3 1007.0 0.0
28/05:30pm 22.6 22.9 16.9 70 3.5 SW 11 19 6 10 1006.9 1006.6 0.0
28/05:00pm 23.3 22.2 16.4 65 4.2 SW 17 26 9 14 1006.6 1006.3 0.0
28/04:30pm 23.9 23.7 16.7 64 4.4 SSW 13 17 7 9 1006.3 1006.0 0.0
28/04:00pm 23.5 23.0 17.0 67 4.0 SW 15 24 8 13 1006.3 1006.0 0.0
28/03:30pm 24.8 24.3 17.8 65 4.4 SSW 17 24 9 13 1006.3 1006.0 0.0
28/03:00pm 24.7 25.2 17.4 64 4.6 SSW 11 19 6 10 1006.4 1006.1 0.0
28/02:30pm 24.1 23.8 17.4 66 4.2 SSW 15 24 8 13 1006.4 1006.1 0.0
28/02:00pm 24.0 22.8 17.0 65 4.3 SSW 19 28 10 15 1006.4 1006.1 0.0

Latest Capital City Observations: Canberra | Sydney | Melbourne | Brisbane | Adelaide | Perth | Hobart | Darwin

Other Formats:

Comma delimited format used in spreadsheet applications
http://www.bom.gov.au/fwo/IDQ60901/IDQ60901.95575.axf

JavaScript Object Notation format (JSON) in row-major order
http://www.bom.gov.au/fwo/IDQ60901/IDQ60901.95575.json